CYGL - La Grande Rivière Airport

Pirep is a free, collaborative database of all public and private airports located within the United States. All pilots are welcome to contribute, edit, and improve any airport they have local knowledge about, no registration required.
Are you familiar with this airport? Help out other pilots by adding your local knowledge.
Uploaded photos will be licensed under a CC BY-SA 4.0 license. Please only upload photos you have the rights to use.
Tags
Public
Undocu­mented
METAR / TAF
Edit Tags
Food
Camping
Lodging
Car Rental
Bicycles
Swimming
Golfing
Fishing
Hot Springs
Museum
Flying Clubs
Airpark
Upcoming Events
No upcoming events. Is anything happening here soon?
*
*
*

Where exactly on/near the airport is this event taking place?

Is there a webpage with more information for this event?

Who should be contacted for more information?

What is this event all about?

Repeat every
Description
Transient Parking
Fuel Location
Landing & Tie-down Fees
Crew Car Availability
Flying Clubs
WiFi Access
Airport Statistics
Location: La Grande Rivière, Quebec
Elevation: 639ft
Runway 13/31: 6,500ft
Warning: This airport was imported from a non-authoritative source. It's public/private status may not be accurate.
Access: Open to the public
Current Weather — MVFR
  • Weather data is strictly informational and not for flight planning purposes.
  • METAR
    2024-04-22 08:00:00 EDT
    Ceiling Wind Temperature Dewpoint Weather Visbility
    2,500ft 210° @ 6kt 0°F -5°F Light snow 10SM
    Clouds: Broken @ 2,500ft, Broken @ 22,000ft
    Raw: CYGL 221200Z 21006KT 10SM -SN BKN025 BKN220 M18/M21 A2992 RMK SC5CI1 SLP155
  • TAF
    2024-04-22 08:00:00 EDT – 2024-04-22 11:00:00 EDT
    Ceiling Wind Weather Visbility
    2,500ft 190° @ 8kt N/A 6SM
    Clouds: Broken @ 2,500ft
    Raw: TAF CYGL 221140Z 2212/2312 19008KT P6SM BKN025 TEMPO 2212/2215 5SM -SN BKN020 FM221500 22010G20KT P6SM -SHSN BKN030 TEMPO 2215/2224 4SM -SHSN BKN020 OVC040 PROB30 2215/2220 2SM -SHSN FM230000 17005KT P6SM BKN025 OVC080 TEMPO 2300/2302 3SM -SHSN BKN020 OVC080 FM230200 05005KT 2SM -SHSN BKN015 OVC060 FM230500 31007KT P6SM BKN012 BKN090 PROB30 2305/2309 BKN008 OVC012 FM230900 30009KT P6SM BKN008 BKN020 RMK NXT FCST BY 221800Z
  • TAF
    2024-04-22 08:00:00 EDT – 2024-04-22 11:00:00 EDT
    Ceiling Wind Weather Visbility
    2,000ft ° @ kt Light snow 5SM
    Clouds: Broken @ 2,000ft
    Raw: TAF CYGL 221140Z 2212/2312 19008KT P6SM BKN025 TEMPO 2212/2215 5SM -SN BKN020 FM221500 22010G20KT P6SM -SHSN BKN030 TEMPO 2215/2224 4SM -SHSN BKN020 OVC040 PROB30 2215/2220 2SM -SHSN FM230000 17005KT P6SM BKN025 OVC080 TEMPO 2300/2302 3SM -SHSN BKN020 OVC080 FM230200 05005KT 2SM -SHSN BKN015 OVC060 FM230500 31007KT P6SM BKN012 BKN090 PROB30 2305/2309 BKN008 OVC012 FM230900 30009KT P6SM BKN008 BKN020 RMK NXT FCST BY 221800Z
  • TAF
    2024-04-22 11:00:00 EDT – 2024-04-22 20:00:00 EDT
    Ceiling Wind Weather Visbility
    3,000ft 220° @ 10kt, gusts 20kt Light snow showers 6SM
    Clouds: Broken @ 3,000ft
    Raw: TAF CYGL 221140Z 2212/2312 19008KT P6SM BKN025 TEMPO 2212/2215 5SM -SN BKN020 FM221500 22010G20KT P6SM -SHSN BKN030 TEMPO 2215/2224 4SM -SHSN BKN020 OVC040 PROB30 2215/2220 2SM -SHSN FM230000 17005KT P6SM BKN025 OVC080 TEMPO 2300/2302 3SM -SHSN BKN020 OVC080 FM230200 05005KT 2SM -SHSN BKN015 OVC060 FM230500 31007KT P6SM BKN012 BKN090 PROB30 2305/2309 BKN008 OVC012 FM230900 30009KT P6SM BKN008 BKN020 RMK NXT FCST BY 221800Z
  • TAF
    2024-04-22 11:00:00 EDT – 2024-04-22 20:00:00 EDT
    Ceiling Wind Weather Visbility
    2,000ft ° @ kt Light snow showers 4SM
    Clouds: Broken @ 2,000ft, Overcast @ 4,000ft
    Raw: TAF CYGL 221140Z 2212/2312 19008KT P6SM BKN025 TEMPO 2212/2215 5SM -SN BKN020 FM221500 22010G20KT P6SM -SHSN BKN030 TEMPO 2215/2224 4SM -SHSN BKN020 OVC040 PROB30 2215/2220 2SM -SHSN FM230000 17005KT P6SM BKN025 OVC080 TEMPO 2300/2302 3SM -SHSN BKN020 OVC080 FM230200 05005KT 2SM -SHSN BKN015 OVC060 FM230500 31007KT P6SM BKN012 BKN090 PROB30 2305/2309 BKN008 OVC012 FM230900 30009KT P6SM BKN008 BKN020 RMK NXT FCST BY 221800Z
  • TAF
    2024-04-22 11:00:00 EDT – 2024-04-22 16:00:00 EDT
    Ceiling Wind Weather Visbility
    Sky clear ° @ kt Light snow showers 2SM
    Raw: TAF CYGL 221140Z 2212/2312 19008KT P6SM BKN025 TEMPO 2212/2215 5SM -SN BKN020 FM221500 22010G20KT P6SM -SHSN BKN030 TEMPO 2215/2224 4SM -SHSN BKN020 OVC040 PROB30 2215/2220 2SM -SHSN FM230000 17005KT P6SM BKN025 OVC080 TEMPO 2300/2302 3SM -SHSN BKN020 OVC080 FM230200 05005KT 2SM -SHSN BKN015 OVC060 FM230500 31007KT P6SM BKN012 BKN090 PROB30 2305/2309 BKN008 OVC012 FM230900 30009KT P6SM BKN008 BKN020 RMK NXT FCST BY 221800Z
  • TAF
    2024-04-22 20:00:00 EDT – 2024-04-22 22:00:00 EDT
    Ceiling Wind Weather Visbility
    2,500ft 170° @ 5kt N/A 6SM
    Clouds: Broken @ 2,500ft, Overcast @ 8,000ft
    Raw: TAF CYGL 221140Z 2212/2312 19008KT P6SM BKN025 TEMPO 2212/2215 5SM -SN BKN020 FM221500 22010G20KT P6SM -SHSN BKN030 TEMPO 2215/2224 4SM -SHSN BKN020 OVC040 PROB30 2215/2220 2SM -SHSN FM230000 17005KT P6SM BKN025 OVC080 TEMPO 2300/2302 3SM -SHSN BKN020 OVC080 FM230200 05005KT 2SM -SHSN BKN015 OVC060 FM230500 31007KT P6SM BKN012 BKN090 PROB30 2305/2309 BKN008 OVC012 FM230900 30009KT P6SM BKN008 BKN020 RMK NXT FCST BY 221800Z
  • TAF
    2024-04-22 20:00:00 EDT – 2024-04-22 22:00:00 EDT
    Ceiling Wind Weather Visbility
    2,000ft ° @ kt Light snow showers 3SM
    Clouds: Broken @ 2,000ft, Overcast @ 8,000ft
    Raw: TAF CYGL 221140Z 2212/2312 19008KT P6SM BKN025 TEMPO 2212/2215 5SM -SN BKN020 FM221500 22010G20KT P6SM -SHSN BKN030 TEMPO 2215/2224 4SM -SHSN BKN020 OVC040 PROB30 2215/2220 2SM -SHSN FM230000 17005KT P6SM BKN025 OVC080 TEMPO 2300/2302 3SM -SHSN BKN020 OVC080 FM230200 05005KT 2SM -SHSN BKN015 OVC060 FM230500 31007KT P6SM BKN012 BKN090 PROB30 2305/2309 BKN008 OVC012 FM230900 30009KT P6SM BKN008 BKN020 RMK NXT FCST BY 221800Z
  • TAF
    2024-04-22 22:00:00 EDT – 2024-04-23 01:00:00 EDT
    Ceiling Wind Weather Visbility
    1,500ft 50° @ 5kt Light snow showers 2SM
    Clouds: Broken @ 1,500ft, Overcast @ 6,000ft
    Raw: TAF CYGL 221140Z 2212/2312 19008KT P6SM BKN025 TEMPO 2212/2215 5SM -SN BKN020 FM221500 22010G20KT P6SM -SHSN BKN030 TEMPO 2215/2224 4SM -SHSN BKN020 OVC040 PROB30 2215/2220 2SM -SHSN FM230000 17005KT P6SM BKN025 OVC080 TEMPO 2300/2302 3SM -SHSN BKN020 OVC080 FM230200 05005KT 2SM -SHSN BKN015 OVC060 FM230500 31007KT P6SM BKN012 BKN090 PROB30 2305/2309 BKN008 OVC012 FM230900 30009KT P6SM BKN008 BKN020 RMK NXT FCST BY 221800Z
  • TAF
    2024-04-23 01:00:00 EDT – 2024-04-23 05:00:00 EDT
    Ceiling Wind Weather Visbility
    1,200ft 310° @ 7kt N/A 6SM
    Clouds: Broken @ 1,200ft, Broken @ 9,000ft
    Raw: TAF CYGL 221140Z 2212/2312 19008KT P6SM BKN025 TEMPO 2212/2215 5SM -SN BKN020 FM221500 22010G20KT P6SM -SHSN BKN030 TEMPO 2215/2224 4SM -SHSN BKN020 OVC040 PROB30 2215/2220 2SM -SHSN FM230000 17005KT P6SM BKN025 OVC080 TEMPO 2300/2302 3SM -SHSN BKN020 OVC080 FM230200 05005KT 2SM -SHSN BKN015 OVC060 FM230500 31007KT P6SM BKN012 BKN090 PROB30 2305/2309 BKN008 OVC012 FM230900 30009KT P6SM BKN008 BKN020 RMK NXT FCST BY 221800Z
  • TAF
    2024-04-23 01:00:00 EDT – 2024-04-23 05:00:00 EDT
    Ceiling Wind Weather Visbility
    800ft ° @ kt N/A SM
    Clouds: Broken @ 800ft, Overcast @ 1,200ft
    Raw: TAF CYGL 221140Z 2212/2312 19008KT P6SM BKN025 TEMPO 2212/2215 5SM -SN BKN020 FM221500 22010G20KT P6SM -SHSN BKN030 TEMPO 2215/2224 4SM -SHSN BKN020 OVC040 PROB30 2215/2220 2SM -SHSN FM230000 17005KT P6SM BKN025 OVC080 TEMPO 2300/2302 3SM -SHSN BKN020 OVC080 FM230200 05005KT 2SM -SHSN BKN015 OVC060 FM230500 31007KT P6SM BKN012 BKN090 PROB30 2305/2309 BKN008 OVC012 FM230900 30009KT P6SM BKN008 BKN020 RMK NXT FCST BY 221800Z
  • TAF
    2024-04-23 05:00:00 EDT – 2024-04-23 08:00:00 EDT
    Ceiling Wind Weather Visbility
    800ft 300° @ 9kt N/A 6SM
    Clouds: Broken @ 800ft, Broken @ 2,000ft
    Raw: TAF CYGL 221140Z 2212/2312 19008KT P6SM BKN025 TEMPO 2212/2215 5SM -SN BKN020 FM221500 22010G20KT P6SM -SHSN BKN030 TEMPO 2215/2224 4SM -SHSN BKN020 OVC040 PROB30 2215/2220 2SM -SHSN FM230000 17005KT P6SM BKN025 OVC080 TEMPO 2300/2302 3SM -SHSN BKN020 OVC080 FM230200 05005KT 2SM -SHSN BKN015 OVC060 FM230500 31007KT P6SM BKN012 BKN090 PROB30 2305/2309 BKN008 OVC012 FM230900 30009KT P6SM BKN008 BKN020 RMK NXT FCST BY 221800Z
Click/tap to add an annotation marker to the map
Airport Webcams
No webcams added yet.
Direct links to live image URLs will be displayed inline on this page. URLs to separate webpages will be linked to.
URL:
Direct links to live image URLs will be displayed inline on this page. URLs to separate webpages will be linked to.
URL:
Comments
Leave a comment What was your experience like at this airport?